Hlavní strana
METAR-TAF:

METAR-TAF

Letiště :

Mezinárodní letiště El-Aríš

Al-Ariš, Egypt

zeměpisná šířka: 31-05N, zeměpisná délka: 033-49E, výška: 31 m

METAR: chybějící

Čas: 02:43 (00:43 UTC)

Předpověď počasí

Zpráva byla vytvořena před 1 hodinou a 43 minutami, v 23:00 UTC
Předpověď platná od 13 v 00 UTC do 14 v 06 UTC
Jihozápadní vítr 14 kt
Viditelnost 10 km a více
Polojasno ve výšce 2000 ft
Dočasný
od 13 v 10 UTC do 13 v 18 UTC
Viditelnost: 3000 m
Oblačno až skoro zataženo ve výšce 3000 ft
déšť, písek

TAF: HEAR 122300Z 1300/1406 22014KT 9999 SCT020 TEMPO 1310/1318 3000 RA SA BKN030

Stav a předpovědi počasí z více než 4 000 letišť (zprávy METAR a TAF).

Červené a žluté tečky na mapě představují dostupné meteorologické stanice.

Když kurzor umístíte na tečku, zobrazí se název stanice.

Pak kliknutím zobrazíte stav a předpověď počasí.

Chcete-li změnit mapu, kliknutím na zelené tlačítko se znaménkem +mapu přiblížíte, kliknutím na zelené tlačítko se znaménkem – mapu oddálíte a kliknutím na zelené šipky přejdete na sousední mapy.


METAR-TAF: